createdAt,value
2022-12-29T00:01:38.527Z,74.29
2022-12-29T00:04:14.313Z,74.82
2022-12-29T00:06:44.173Z,74.58
2022-12-29T00:09:16.687Z,74.17
2022-12-29T00:11:43.806Z,75.16
2022-12-29T00:14:30.631Z,74.52
2022-12-29T00:16:58.164Z,74.63
2022-12-29T00:19:43.655Z,74.28
2022-12-29T00:22:33.819Z,74.54
2022-12-29T00:25:01.394Z,74.70
2022-12-29T00:27:48.896Z,74.64
2022-12-29T00:30:38.609Z,74.36
2022-12-29T00:33:38.176Z,74.41
2022-12-29T00:36:22.786Z,74.50
2022-12-29T00:39:14.320Z,73.78
2022-12-29T00:42:02.580Z,74.80
2022-12-29T00:44:29.923Z,74.67
2022-12-29T00:46:59.655Z,74.78
2022-12-29T00:49:32.223Z,74.56
2022-12-29T00:52:33.500Z,74.09
2022-12-29T00:54:59.887Z,74.15
2022-12-29T00:57:26.327Z,73.96
2022-12-29T00:59:52.848Z,74.07
2022-12-29T01:02:19.567Z,74.32
2022-12-29T01:04:46.149Z,73.81
2022-12-29T01:07:12.555Z,74.19
2022-12-29T01:09:57.788Z,74.39
2022-12-29T01:12:41.250Z,74.17
2022-12-29T01:15:09.999Z,74.25
2022-12-29T01:17:36.644Z,73.72
2022-12-29T01:20:04.117Z,74.13
2022-12-29T01:22:30.511Z,73.95
2022-12-29T01:24:57.297Z,73.89
2022-12-29T01:27:23.722Z,73.85
2022-12-29T01:29:50.247Z,73.45
2022-12-29T01:32:16.696Z,73.23
2022-12-29T01:34:44.751Z,73.81
2022-12-29T01:37:11.823Z,73.54
2022-12-29T01:39:38.263Z,73.78
2022-12-29T01:42:04.723Z,73.73
2022-12-29T01:44:51.359Z,73.98
2022-12-29T01:47:39.329Z,74.00
2022-12-29T01:50:13.437Z,74.22
2022-12-29T01:52:45.997Z,73.65
2022-12-29T01:55:13.316Z,73.49
2022-12-29T01:57:45.000Z,73.02
2022-12-29T02:00:14.637Z,73.40
2022-12-29T02:02:45.744Z,73.67
2022-12-29T02:05:24.213Z,73.55
2022-12-29T02:07:52.575Z,73.75
2022-12-29T02:10:22.232Z,73.89
2022-12-29T02:12:49.213Z,73.66
2022-12-29T02:15:16.458Z,73.41
2022-12-29T02:18:03.709Z,73.35
2022-12-29T02:21:06.597Z,73.15
2022-12-29T02:24:10.635Z,73.07
2022-12-29T02:27:01.905Z,74.00
2022-12-29T02:29:53.016Z,72.65
2022-12-29T02:32:45.711Z,72.88
2022-12-29T02:35:26.425Z,72.93
2022-12-29T02:38:20.671Z,73.09
2022-12-29T02:40:59.071Z,72.61
2022-12-29T02:43:37.598Z,72.81
2022-12-29T02:46:24.609Z,72.57
2022-12-29T02:49:16.048Z,72.41
2022-12-29T02:51:52.509Z,72.77
2022-12-29T02:54:38.565Z,72.78
2022-12-29T02:57:18.297Z,72.35
2022-12-29T02:59:46.149Z,72.70
2022-12-29T03:02:37.700Z,72.82
2022-12-29T03:05:25.450Z,72.61
2022-12-29T03:08:10.682Z,72.77
2022-12-29T03:10:49.392Z,72.19
2022-12-29T03:13:42.081Z,72.42
2022-12-29T03:16:20.964Z,72.21
2022-12-29T03:18:52.627Z,72.81
2022-12-29T03:22:04.360Z,72.17
2022-12-29T03:24:35.951Z,72.30
2022-12-29T03:27:05.837Z,71.93
2022-12-29T03:29:36.612Z,72.13
2022-12-29T03:32:05.778Z,72.55
2022-12-29T03:34:34.097Z,72.00
2022-12-29T03:37:14.159Z,72.07
2022-12-29T03:39:41.960Z,72.41
2022-12-29T03:42:15.984Z,71.80
2022-12-29T03:44:44.733Z,72.08
2022-12-29T03:47:13.351Z,72.69
2022-12-29T03:49:40.350Z,72.50
2022-12-29T03:52:06.859Z,72.28
2022-12-29T03:54:33.901Z,71.63
2022-12-29T03:57:00.662Z,71.92
2022-12-29T03:59:27.047Z,71.34
2022-12-29T04:01:53.561Z,71.17
2022-12-29T04:04:19.969Z,71.60
2022-12-29T04:06:46.420Z,71.83
2022-12-29T04:09:12.923Z,70.95
2022-12-29T04:11:39.258Z,71.36
2022-12-29T04:14:05.742Z,71.52
2022-12-29T04:16:32.125Z,71.09
2022-12-29T04:18:58.465Z,71.47
2022-12-29T04:21:24.925Z,71.96
2022-12-29T04:23:51.265Z,71.25
2022-12-29T04:26:17.706Z,70.74
2022-12-29T04:28:44.051Z,70.84
2022-12-29T04:31:10.795Z,71.30
2022-12-29T04:33:37.172Z,70.83
2022-12-29T04:36:03.700Z,71.46
2022-12-29T04:38:30.102Z,71.13
2022-12-29T04:40:59.650Z,70.70
2022-12-29T04:43:26.056Z,71.25
2022-12-29T04:45:52.638Z,70.32
2022-12-29T04:48:19.000Z,70.47
2022-12-29T04:50:48.857Z,70.49
2022-12-29T04:53:16.016Z,71.28
2022-12-29T04:55:42.531Z,70.82
2022-12-29T04:58:08.945Z,70.84
2022-12-29T05:00:35.403Z,70.84
2022-12-29T05:03:02.401Z,71.04
2022-12-29T05:05:28.932Z,70.52
2022-12-29T05:07:55.343Z,71.18
2022-12-29T05:10:21.718Z,71.45
2022-12-29T05:12:48.283Z,70.46
2022-12-29T05:15:14.669Z,71.35
2022-12-29T05:17:41.000Z,71.05
2022-12-29T05:20:08.121Z,70.52
2022-12-29T05:22:34.707Z,70.89
2022-12-29T05:25:01.136Z,70.49
2022-12-29T05:27:27.839Z,70.81
2022-12-29T05:29:54.335Z,71.60
2022-12-29T05:32:20.751Z,70.59
2022-12-29T05:34:47.296Z,70.83
2022-12-29T05:37:13.771Z,70.84
2022-12-29T05:39:40.691Z,70.49
2022-12-29T05:42:07.073Z,71.22
2022-12-29T05:44:34.174Z,70.77
2022-12-29T05:47:00.632Z,70.77
2022-12-29T05:49:27.088Z,70.94
2022-12-29T05:51:53.518Z,70.85
2022-12-29T05:54:19.906Z,70.63
2022-12-29T05:56:46.432Z,71.14
2022-12-29T05:59:12.813Z,70.50
2022-12-29T06:01:39.394Z,70.80
2022-12-29T06:04:05.857Z,70.26
2022-12-29T06:06:32.270Z,70.88
2022-12-29T06:08:58.647Z,70.96
2022-12-29T06:11:24.993Z,70.77
2022-12-29T06:13:51.423Z,71.68
2022-12-29T06:16:18.005Z,70.76
2022-12-29T06:18:44.477Z,71.21
2022-12-29T06:21:10.954Z,70.64
2022-12-29T06:23:37.418Z,71.80
2022-12-29T06:26:03.830Z,71.73
2022-12-29T06:28:30.214Z,70.57
2022-12-29T06:30:56.625Z,71.60
2022-12-29T06:33:23.111Z,71.02
2022-12-29T06:35:49.567Z,70.93
2022-12-29T06:38:16.310Z,71.46
2022-12-29T06:40:45.738Z,70.45
2022-12-29T06:43:12.168Z,71.55
2022-12-29T06:45:40.818Z,71.25
2022-12-29T06:48:08.033Z,70.65
2022-12-29T06:50:34.416Z,71.72
2022-12-29T06:53:02.028Z,71.44
2022-12-29T06:55:29.181Z,71.45
2022-12-29T06:57:57.353Z,71.41
2022-12-29T07:00:25.091Z,71.72
2022-12-29T07:02:52.087Z,71.22
2022-12-29T07:05:19.038Z,71.49
2022-12-29T07:07:45.415Z,71.88
2022-12-29T07:10:12.074Z,71.72
2022-12-29T07:12:38.425Z,71.66
2022-12-29T07:15:05.119Z,71.57
2022-12-29T07:17:31.736Z,71.78
2022-12-29T07:19:58.144Z,71.98
2022-12-29T07:22:24.606Z,71.18
2022-12-29T07:24:51.059Z,71.43
2022-12-29T07:27:17.501Z,70.79
2022-12-29T07:29:43.933Z,70.68
2022-12-29T07:32:10.370Z,70.80
2022-12-29T07:34:36.767Z,70.50
2022-12-29T07:37:03.206Z,70.76
2022-12-29T07:39:29.747Z,71.28
2022-12-29T07:42:01.059Z,71.52
2022-12-29T07:44:30.844Z,71.35
2022-12-29T07:46:57.916Z,71.58
2022-12-29T07:49:25.448Z,70.98
2022-12-29T07:51:51.997Z,71.39
2022-12-29T07:54:19.379Z,70.39
2022-12-29T07:56:46.542Z,70.73
2022-12-29T07:59:15.894Z,70.56
2022-12-29T08:01:42.495Z,71.23
2022-12-29T08:04:09.196Z,71.16
2022-12-29T08:06:36.064Z,70.55
2022-12-29T08:09:11.128Z,70.49
2022-12-29T08:11:41.500Z,70.38
2022-12-29T08:14:07.960Z,69.83
2022-12-29T08:16:34.420Z,69.68
2022-12-29T08:19:01.138Z,70.04
2022-12-29T08:21:30.925Z,69.20
2022-12-29T08:23:57.526Z,69.54
2022-12-29T08:26:24.156Z,70.06
2022-12-29T08:28:53.606Z,70.16
2022-12-29T08:31:20.154Z,69.20
2022-12-29T08:33:46.565Z,69.30
2022-12-29T08:36:12.933Z,69.83
2022-12-29T08:38:39.271Z,70.20
2022-12-29T08:41:05.677Z,69.52
2022-12-29T08:43:32.111Z,70.17
2022-12-29T08:46:01.401Z,70.08
2022-12-29T08:48:27.930Z,69.57
2022-12-29T08:50:54.646Z,70.05
2022-12-29T08:53:21.211Z,69.65
2022-12-29T08:55:48.638Z,70.04
2022-12-29T08:58:15.698Z,69.36
2022-12-29T09:00:43.246Z,69.26
2022-12-29T09:03:10.473Z,68.94
2022-12-29T09:05:37.227Z,69.58
2022-12-29T09:08:04.028Z,69.70
2022-12-29T09:10:30.427Z,68.47
2022-12-29T09:12:56.944Z,68.81
2022-12-29T09:15:23.423Z,68.05
2022-12-29T09:17:50.062Z,68.74
2022-12-29T09:20:19.281Z,68.79
2022-12-29T09:22:46.860Z,68.26
2022-12-29T09:25:14.281Z,69.29
2022-12-29T09:27:41.058Z,68.62
2022-12-29T09:30:10.297Z,67.96
2022-12-29T09:32:43.629Z,68.74
2022-12-29T09:35:11.686Z,68.88
2022-12-29T09:37:38.051Z,68.37
2022-12-29T09:40:05.855Z,68.84
2022-12-29T09:43:04.218Z,68.02
2022-12-29T09:45:36.820Z,67.79
2022-12-29T09:48:09.767Z,67.48
2022-12-29T09:50:38.708Z,67.41
2022-12-29T09:53:29.777Z,67.03
2022-12-29T09:55:58.983Z,67.78
2022-12-29T09:58:30.054Z,67.18
2022-12-29T10:01:27.318Z,66.52
2022-12-29T10:03:56.887Z,67.11
2022-12-29T10:07:03.724Z,66.83
2022-12-29T10:09:34.186Z,67.08
2022-12-29T10:12:03.523Z,67.58
2022-12-29T10:14:29.863Z,66.94
2022-12-29T10:17:34.687Z,67.17
2022-12-29T10:20:19.273Z,67.26
2022-12-29T10:23:07.377Z,67.86
2022-12-29T10:25:38.739Z,66.94
2022-12-29T10:28:18.672Z,67.72
2022-12-29T10:30:48.190Z,66.79
2022-12-29T10:33:20.599Z,67.83
2022-12-29T10:35:48.357Z,67.73
2022-12-29T10:38:35.934Z,67.05
2022-12-29T10:41:35.244Z,67.13
2022-12-29T10:44:02.074Z,66.71
2022-12-29T10:46:33.588Z,66.83
2022-12-29T10:49:00.369Z,66.96
2022-12-29T10:51:32.046Z,66.66
2022-12-29T10:54:12.432Z,67.34
2022-12-29T10:57:19.419Z,66.40
2022-12-29T10:59:46.019Z,66.81
2022-12-29T11:02:12.558Z,66.15
2022-12-29T11:05:02.992Z,66.15
2022-12-29T11:07:31.289Z,65.71
2022-12-29T11:10:17.268Z,65.29
2022-12-29T11:13:11.491Z,65.48
2022-12-29T11:15:53.466Z,65.11
2022-12-29T11:18:22.821Z,64.86
2022-12-29T11:20:53.743Z,65.45
2022-12-29T11:23:23.231Z,65.28
2022-12-29T11:26:15.570Z,64.67
2022-12-29T11:28:45.670Z,65.76
2022-12-29T11:31:17.335Z,64.98
2022-12-29T11:33:43.868Z,64.98
2022-12-29T11:36:18.339Z,65.53
2022-12-29T11:38:56.260Z,64.95
2022-12-29T11:41:28.725Z,64.92
2022-12-29T11:43:59.089Z,64.87
2022-12-29T11:46:30.544Z,64.70
2022-12-29T11:49:00.495Z,64.93
2022-12-29T11:51:45.735Z,65.04
2022-12-29T11:54:23.138Z,65.09
2022-12-29T11:56:52.709Z,65.24
2022-12-29T11:59:35.275Z,65.42
2022-12-29T12:02:12.154Z,65.87
2022-12-29T12:04:39.513Z,67.08
2022-12-29T12:07:08.959Z,67.38
2022-12-29T12:09:39.865Z,66.95
2022-12-29T12:12:09.568Z,66.97
2022-12-29T12:14:43.459Z,68.32
2022-12-29T12:17:14.863Z,68.35
2022-12-29T12:19:50.448Z,68.54
2022-12-29T12:22:32.805Z,67.96
2022-12-29T12:25:07.278Z,68.88
2022-12-29T12:27:45.083Z,68.82
2022-12-29T12:30:17.354Z,68.13
2022-12-29T12:32:56.614Z,68.31
2022-12-29T12:35:50.612Z,68.53
2022-12-29T12:39:04.420Z,69.41
2022-12-29T12:41:53.048Z,69.26
2022-12-29T12:45:01.490Z,68.97
2022-12-29T12:47:49.092Z,68.94
2022-12-29T12:50:28.922Z,69.33
2022-12-29T12:53:38.306Z,68.71
2022-12-29T12:56:46.882Z,68.07
2022-12-29T12:59:16.502Z,68.57
2022-12-29T13:02:04.916Z,67.91
2022-12-29T13:05:01.194Z,68.70
2022-12-29T13:07:31.138Z,67.92
2022-12-29T13:10:22.364Z,68.15
2022-12-29T13:13:14.612Z,68.41
2022-12-29T13:15:53.042Z,67.85
2022-12-29T13:18:43.099Z,68.67
2022-12-29T13:22:02.011Z,68.28
2022-12-29T13:24:47.636Z,69.08
2022-12-29T13:27:17.934Z,68.63
2022-12-29T13:30:03.450Z,69.60
2022-12-29T13:32:36.338Z,70.10
2022-12-29T13:35:26.811Z,70.01
2022-12-29T13:38:12.606Z,69.27
2022-12-29T13:40:44.830Z,70.24
2022-12-29T13:43:14.024Z,70.07
2022-12-29T13:45:42.721Z,70.64
2022-12-29T13:48:37.469Z,70.86
2022-12-29T13:51:05.527Z,70.27
2022-12-29T13:53:57.718Z,70.93
2022-12-29T13:56:40.982Z,70.84
2022-12-29T13:59:29.908Z,70.69
2022-12-29T14:02:12.665Z,71.32
2022-12-29T14:04:57.509Z,71.22
2022-12-29T14:07:24.747Z,71.27
2022-12-29T14:10:02.715Z,71.02
2022-12-29T14:12:44.457Z,71.58
2022-12-29T14:15:11.332Z,70.67
2022-12-29T14:17:45.474Z,71.45
2022-12-29T14:20:28.340Z,71.72
2022-12-29T14:23:02.641Z,71.38
2022-12-29T14:26:07.220Z,71.71
2022-12-29T14:28:48.332Z,71.92
2022-12-29T14:31:14.806Z,71.79
2022-12-29T14:33:42.722Z,71.28
2022-12-29T14:37:04.088Z,71.10
2022-12-29T14:39:42.451Z,71.37
2022-12-29T14:42:11.798Z,71.23
2022-12-29T14:44:49.914Z,71.76
2022-12-29T14:47:21.317Z,72.57
2022-12-29T14:49:47.988Z,72.48
2022-12-29T14:52:20.900Z,71.89
2022-12-29T14:54:59.951Z,72.77
2022-12-29T14:57:40.630Z,73.10
2022-12-29T15:00:12.720Z,73.19
2022-12-29T15:02:43.502Z,73.40
2022-12-29T15:05:27.165Z,73.37
2022-12-29T15:07:56.431Z,73.34
2022-12-29T15:10:24.933Z,72.76
2022-12-29T15:12:55.166Z,72.88
2022-12-29T15:15:27.531Z,73.07
2022-12-29T15:17:54.259Z,73.31
2022-12-29T15:20:24.989Z,73.66
2022-12-29T15:22:57.790Z,73.64
2022-12-29T15:25:26.240Z,73.37
2022-12-29T15:28:06.374Z,73.01
2022-12-29T15:30:34.551Z,72.99
2022-12-29T15:33:06.516Z,73.80
2022-12-29T15:35:39.895Z,72.89
2022-12-29T15:38:30.314Z,73.18
2022-12-29T15:41:04.719Z,74.21
2022-12-29T15:43:58.946Z,73.29
2022-12-29T15:46:26.649Z,73.90
2022-12-29T15:48:57.468Z,72.89
2022-12-29T15:51:38.136Z,73.97
2022-12-29T15:54:07.415Z,73.51
2022-12-29T15:56:44.814Z,74.97
2022-12-29T15:59:34.167Z,74.91
2022-12-29T16:02:14.033Z,75.03
2022-12-29T16:05:09.166Z,75.97
2022-12-29T16:07:42.389Z,76.73
2022-12-29T16:10:34.604Z,77.33
2022-12-29T16:13:16.479Z,77.19
2022-12-29T16:15:47.947Z,76.38
2022-12-29T16:18:53.395Z,76.66
2022-12-29T16:21:44.736Z,76.92
2022-12-29T16:24:21.449Z,76.74
2022-12-29T16:27:00.076Z,76.68
2022-12-29T16:29:30.505Z,77.46
2022-12-29T16:32:04.330Z,77.77
2022-12-29T16:34:45.488Z,77.04
2022-12-29T16:37:41.726Z,78.14
2022-12-29T16:40:27.738Z,77.41
2022-12-29T16:43:05.592Z,77.28
2022-12-29T16:45:48.005Z,77.43
2022-12-29T16:48:14.927Z,77.62
2022-12-29T16:50:44.950Z,78.44
2022-12-29T16:53:25.151Z,78.69
2022-12-29T16:56:01.614Z,78.35
2022-12-29T16:58:38.764Z,78.94
2022-12-29T17:01:20.128Z,78.59
2022-12-29T17:03:58.700Z,79.15
2022-12-29T17:06:26.128Z,79.58
2022-12-29T17:08:57.159Z,78.47
2022-12-29T17:11:44.278Z,79.61
2022-12-29T17:14:24.572Z,79.81
2022-12-29T17:16:56.544Z,79.31
2022-12-29T17:19:46.470Z,79.87
2022-12-29T17:22:26.401Z,80.11
2022-12-29T17:25:31.168Z,79.53
2022-12-29T17:28:33.600Z,79.72
2022-12-29T17:31:09.921Z,80.52
2022-12-29T17:33:52.917Z,80.36
2022-12-29T17:39:17.872Z,80.29
2022-12-29T17:41:46.383Z,80.67
2022-12-29T17:44:21.520Z,80.37
2022-12-29T17:46:49.299Z,81.00
2022-12-29T17:49:19.160Z,81.21
2022-12-29T17:51:48.219Z,80.83
2022-12-29T17:54:33.617Z,80.84
2022-12-29T17:57:12.904Z,81.76
2022-12-29T17:59:44.816Z,81.01
2022-12-29T18:02:35.358Z,81.02
2022-12-29T18:05:08.917Z,82.07
2022-12-29T18:07:36.259Z,81.33
2022-12-29T18:10:07.498Z,82.14
2022-12-29T18:12:45.933Z,81.26
2022-12-29T18:15:30.435Z,81.85
2022-12-29T18:18:08.909Z,82.12
2022-12-29T18:20:35.545Z,82.20
2022-12-29T18:23:01.997Z,82.22
2022-12-29T18:25:41.332Z,82.63
2022-12-29T18:28:07.701Z,82.55
2022-12-29T18:30:35.970Z,82.38
2022-12-29T18:33:02.481Z,82.18
2022-12-29T18:35:37.468Z,82.35
2022-12-29T18:38:05.945Z,82.28
2022-12-29T18:40:36.533Z,83.03
2022-12-29T18:43:03.841Z,82.24
2022-12-29T18:45:32.915Z,82.31
2022-12-29T18:48:00.368Z,82.88
2022-12-29T18:50:26.932Z,82.61
2022-12-29T18:52:53.870Z,83.38
2022-12-29T18:55:24.253Z,83.21
2022-12-29T18:57:51.593Z,82.76
2022-12-29T19:00:20.634Z,82.79
2022-12-29T19:02:48.946Z,82.85
2022-12-29T19:05:25.671Z,83.52
2022-12-29T19:07:52.913Z,82.96
2022-12-29T19:10:20.548Z,82.95
2022-12-29T19:12:47.531Z,83.37
2022-12-29T19:15:24.344Z,83.45
2022-12-29T19:18:16.545Z,82.93
2022-12-29T19:20:43.667Z,83.39
2022-12-29T19:23:20.278Z,82.98
2022-12-29T19:25:51.618Z,83.43
2022-12-29T19:28:27.482Z,83.27
2022-12-29T19:31:01.286Z,84.12
2022-12-29T19:33:34.716Z,83.68
2022-12-29T19:36:08.104Z,83.93
2022-12-29T19:38:43.141Z,83.69
2022-12-29T19:41:13.833Z,83.84
2022-12-29T19:43:41.214Z,83.71
2022-12-29T19:46:10.833Z,83.84
2022-12-29T19:48:43.772Z,83.54
2022-12-29T19:51:17.543Z,84.43
2022-12-29T19:53:46.863Z,84.18
2022-12-29T19:56:15.061Z,84.51
2022-12-29T19:58:47.152Z,84.21
2022-12-29T20:01:20.955Z,84.55
2022-12-29T20:03:49.636Z,84.51
2022-12-29T20:06:16.897Z,84.07
2022-12-29T20:08:45.417Z,84.33
2022-12-29T20:11:16.312Z,85.05
2022-12-29T20:13:44.131Z,84.62
2022-12-29T20:16:24.196Z,85.31
2022-12-29T20:18:51.000Z,84.87
2022-12-29T20:21:20.487Z,85.08
2022-12-29T20:23:47.531Z,84.79
2022-12-29T20:26:16.835Z,85.55
2022-12-29T20:28:43.413Z,84.74
2022-12-29T20:31:23.416Z,85.04
2022-12-29T20:33:50.220Z,85.02
2022-12-29T20:36:23.545Z,84.65
2022-12-29T20:38:51.730Z,84.92
2022-12-29T20:41:19.088Z,85.30
2022-12-29T20:43:45.681Z,85.47
2022-12-29T20:46:18.136Z,85.59
2022-12-29T20:48:47.691Z,84.87
2022-12-29T20:51:14.292Z,85.46
2022-12-29T20:53:40.771Z,84.97
2022-12-29T20:56:20.419Z,85.20
2022-12-29T20:59:17.532Z,85.15
2022-12-29T21:01:34.231Z,85.73
2022-12-29T21:04:00.937Z,85.59
2022-12-29T21:06:27.764Z,85.18
2022-12-29T21:08:55.028Z,85.28
2022-12-29T21:11:22.501Z,85.54
2022-12-29T21:13:49.219Z,85.94
2022-12-29T21:16:16.232Z,86.02
2022-12-29T21:18:42.872Z,85.56
2022-12-29T21:21:18.495Z,86.03
2022-12-29T21:23:44.989Z,85.81
2022-12-29T21:26:14.940Z,86.34
2022-12-29T21:28:41.609Z,86.46
2022-12-29T21:31:32.848Z,85.92
2022-12-29T21:34:01.493Z,86.20
2022-12-29T21:36:29.402Z,85.89
2022-12-29T21:38:58.157Z,86.50
2022-12-29T21:41:25.025Z,86.67
2022-12-29T21:44:11.494Z,85.93
2022-12-29T21:46:40.154Z,86.53
2022-12-29T21:49:07.304Z,86.50
2022-12-29T21:51:54.103Z,86.41
2022-12-29T21:54:44.821Z,86.54
2022-12-29T21:57:17.974Z,86.56
2022-12-29T22:00:06.065Z,86.67
2022-12-29T22:02:50.988Z,86.36
2022-12-29T22:05:36.200Z,86.11
2022-12-29T22:08:21.400Z,86.70
2022-12-29T22:11:07.224Z,86.58
2022-12-29T22:13:36.299Z,86.68
2022-12-29T22:16:04.389Z,86.87
2022-12-29T22:18:31.502Z,86.17
2022-12-29T22:20:58.386Z,86.23
2022-12-29T22:23:25.815Z,86.40
2022-12-29T22:25:52.780Z,86.31
2022-12-29T22:28:22.675Z,86.16
2022-12-29T22:30:50.753Z,86.36
2022-12-29T22:33:18.018Z,86.82
2022-12-29T22:35:45.911Z,86.99
2022-12-29T22:38:13.425Z,86.44
2022-12-29T22:40:44.335Z,86.42
2022-12-29T22:43:14.382Z,86.73
2022-12-29T22:45:44.669Z,86.40
2022-12-29T22:48:11.489Z,86.33
2022-12-29T22:50:40.491Z,86.62
2022-12-29T22:53:07.332Z,86.38
2022-12-29T22:55:34.439Z,86.45
2022-12-29T22:58:02.822Z,86.45
2022-12-29T23:00:30.182Z,86.60
2022-12-29T23:02:59.726Z,87.13
2022-12-29T23:05:26.774Z,86.70
2022-12-29T23:07:53.452Z,86.43
2022-12-29T23:10:29.602Z,86.56
2022-12-29T23:12:56.768Z,86.38
2022-12-29T23:15:23.781Z,86.81
2022-12-29T23:17:50.206Z,87.10
2022-12-29T23:20:16.688Z,86.33
2022-12-29T23:22:43.035Z,86.22
2022-12-29T23:25:09.730Z,86.30
2022-12-29T23:27:36.117Z,86.54
2022-12-29T23:30:02.646Z,86.78
2022-12-29T23:32:29.052Z,86.80
2022-12-29T23:34:55.513Z,86.83
2022-12-29T23:37:21.892Z,86.28
2022-12-29T23:39:48.297Z,86.34
2022-12-29T23:42:14.870Z,86.36
2022-12-29T23:44:41.226Z,86.39
2022-12-29T23:47:07.696Z,87.20
2022-12-29T23:49:34.062Z,86.70
2022-12-29T23:52:00.467Z,86.35
2022-12-29T23:54:26.867Z,87.17
2022-12-29T23:56:53.204Z,86.40
2022-12-29T23:59:19.655Z,86.92
